Time;durP1;ratioP1;P1;durP2;ratioP2;P2;SDS_P1;SDS_P2;PMS_P1;PMS_P2;Temp;Humidity;BMP_temperature;BMP_pressure;BME280_temperature;BME280_humidity;BME280_pressure;Samples;Min_cycle;Max_cycle;Signal;HPM_P1;HPM_P2
2021/03/08 00:00:59;;;;;;;63.20;36.17;;;;;;;;;;4327468;33;20588;-58
2021/03/08 00:03:24;;;;;;;60.20;36.43;;;;;;;;;;4325062;33;20198;-58
2021/03/08 00:05:50;;;;;;;57.90;34.00;;;;;;;;;;4326683;33;20231;-57
2021/03/08 00:08:15;;;;;;;69.63;35.43;;;;;;;;;;4331399;33;20282;-56
2021/03/08 00:10:41;;;;;;;66.33;37.87;;;;;;;;;;4326195;33;20238;-57
2021/03/08 00:13:07;;;;;;;69.17;35.60;;;;;;;;;;4349281;32;20357;-57
2021/03/08 00:15:32;;;;;;;68.53;37.23;;;;;;;;;;4329697;33;20799;-57
2021/03/08 00:17:58;;;;;;;68.50;43.43;;;;;;;;;;4326434;33;20337;-59
2021/03/08 00:20:26;;;;;;;79.23;43.20;;;;;;;;;;4326655;33;20266;-60
2021/03/08 00:22:52;;;;;;;122.60;62.70;;;;;;;;;;4328700;33;20238;-62
2021/03/08 00:25:20;;;;;;;155.27;76.93;;;;;;;;;;4325522;33;20211;-61
2021/03/08 00:27:46;;;;;;;141.23;68.73;;;;;;;;;;4326513;33;20227;-61
2021/03/08 00:30:13;;;;;;;150.37;73.83;;;;;;;;;;4325572;33;20257;-61
2021/03/08 00:32:38;;;;;;;138.07;67.03;;;;;;;;;;4327880;33;20292;-59
2021/03/08 00:35:06;;;;;;;126.43;64.33;;;;;;;;;;4322862;33;20243;-72
2021/03/08 00:37:32;;;;;;;154.13;74.57;;;;;;;;;;4329035;33;20207;-62
2021/03/08 00:40:06;;;;;;;138.13;71.23;;;;;;;;;;4325971;33;20338;-62
2021/03/08 00:42:32;;;;;;;126.43;64.83;;;;;;;;;;4324412;33;20557;-68
2021/03/08 00:44:58;;;;;;;86.50;45.90;;;;;;;;;;4345407;32;20540;-67
2021/03/08 00:47:24;;;;;;;76.83;44.13;;;;;;;;;;4327819;33;20487;-67
2021/03/08 00:49:50;;;;;;;84.33;45.17;;;;;;;;;;4325652;33;20428;-66
2021/03/08 00:52:17;;;;;;;92.43;46.50;;;;;;;;;;4326369;33;20309;-65
2021/03/08 00:54:42;;;;;;;80.43;45.00;;;;;;;;;;4322980;33;20914;-66
2021/03/08 00:57:09;;;;;;;73.00;43.20;;;;;;;;;;4351825;32;20709;-65
2021/03/08 00:59:35;;;;;;;89.43;47.33;;;;;;;;;;4324122;33;20665;-65
2021/03/08 01:02:01;;;;;;;82.53;45.50;;;;;;;;;;4327666;33;20308;-65
2021/03/08 01:04:27;;;;;;;89.10;47.90;;;;;;;;;;4325057;33;20223;-64
2021/03/08 01:06:53;;;;;;;87.93;46.83;;;;;;;;;;4352665;32;20313;-65
2021/03/08 01:09:18;;;;;;;82.97;47.13;;;;;;;;;;4325499;33;20235;-66
2021/03/08 01:11:44;;;;;;;86.10;47.90;;;;;;;;;;4324512;33;20377;-65
2021/03/08 01:14:11;;;;;;;83.30;45.03;;;;;;;;;;4326665;33;20684;-64
2021/03/08 01:16:37;;;;;;;85.07;46.03;;;;;;;;;;4326245;33;20237;-64
2021/03/08 01:19:03;;;;;;;95.03;48.17;;;;;;;;;;4325023;33;20360;-64
2021/03/08 01:21:30;;;;;;;76.33;42.47;;;;;;;;;;4322937;33;20783;-62
2021/03/08 01:23:55;;;;;;;77.80;42.93;;;;;;;;;;4327069;33;20208;-63
2021/03/08 01:26:21;;;;;;;80.47;43.40;;;;;;;;;;4326662;33;20250;-63
2021/03/08 01:28:47;;;;;;;81.63;45.87;;;;;;;;;;4326810;33;20322;-64
2021/03/08 01:31:13;;;;;;;79.97;44.17;;;;;;;;;;4324255;33;20227;-62
2021/03/08 01:33:38;;;;;;;86.57;46.60;;;;;;;;;;4327108;33;20730;-63
2021/03/08 01:36:04;;;;;;;86.73;48.67;;;;;;;;;;4323842;33;20252;-60
2021/03/08 01:38:30;;;;;;;91.53;46.03;;;;;;;;;;4322072;33;20290;-60
2021/03/08 01:40:55;;;;;;;96.03;48.67;;;;;;;;;;4347458;32;20273;-60
2021/03/08 01:43:22;;;;;;;91.40;46.70;;;;;;;;;;4325838;33;20570;-61
2021/03/08 01:45:48;;;;;;;98.93;51.40;;;;;;;;;;4323074;33;20215;-61
2021/03/08 01:48:13;;;;;;;92.10;46.70;;;;;;;;;;4324561;33;20253;-63
2021/03/08 01:50:44;;;;;;;81.60;47.47;;;;;;;;;;4327135;33;20227;-64
2021/03/08 01:53:15;;;;;;;73.77;42.80;;;;;;;;;;4325190;33;20215;-63
2021/03/08 01:55:41;;;;;;;79.50;46.07;;;;;;;;;;4326084;33;20375;-63
2021/03/08 01:58:06;;;;;;;93.37;52.53;;;;;;;;;;4326085;33;20728;-66
2021/03/08 02:00:33;;;;;;;103.13;55.83;;;;;;;;;;4327433;33;20341;-65
2021/03/08 02:02:59;;;;;;;98.63;55.30;;;;;;;;;;4322888;33;20353;-65
2021/03/08 02:05:35;;;;;;;107.57;57.93;;;;;;;;;;4325601;33;20235;-65
2021/03/08 02:08:04;;;;;;;95.90;51.70;;;;;;;;;;4327487;33;20234;-64
2021/03/08 02:10:34;;;;;;;99.07;55.50;;;;;;;;;;4326944;33;20324;-63
2021/03/08 02:13:11;;;;;;;88.47;48.30;;;;;;;;;;4323365;33;20223;-64
2021/03/08 02:16:09;;;;;;;87.43;45.43;;;;;;;;;;4325867;33;20346;-64
2021/03/08 02:18:34;;;;;;;83.03;43.80;;;;;;;;;;4323411;33;20269;-64
2021/03/08 02:21:28;;;;;;;81.27;45.07;;;;;;;;;;4350233;32;20560;-64
2021/03/08 02:24:21;;;;;;;78.17;42.13;;;;;;;;;;4349010;32;20416;-64
2021/03/08 02:27:06;;;;;;;68.07;40.10;;;;;;;;;;4321700;33;20212;-54
2021/03/08 02:30:00;;;;;;;65.57;38.87;;;;;;;;;;4324365;33;20235;-54
2021/03/08 02:32:49;;;;;;;70.93;37.80;;;;;;;;;;4322650;33;20613;-54
2021/03/08 02:35:20;;;;;;;77.07;39.33;;;;;;;;;;4324150;33;20673;-54
2021/03/08 02:37:52;;;;;;;61.87;34.47;;;;;;;;;;4322077;33;20343;-54
2021/03/08 02:40:23;;;;;;;59.40;32.10;;;;;;;;;;4326793;33;20250;-52
2021/03/08 02:42:53;;;;;;;53.17;29.90;;;;;;;;;;4321495;33;20207;-54
2021/03/08 02:45:21;;;;;;;66.30;35.10;;;;;;;;;;4325175;33;20203;-54
2021/03/08 02:47:49;;;;;;;76.67;43.13;;;;;;;;;;4321918;33;20333;-55
2021/03/08 02:50:17;;;;;;;88.13;46.93;;;;;;;;;;4325592;33;20317;-54
2021/03/08 02:52:51;;;;;;;82.90;47.50;;;;;;;;;;4321479;33;20304;-56
2021/03/08 02:55:18;;;;;;;96.77;52.47;;;;;;;;;;4325280;33;20619;-54
2021/03/08 02:57:46;;;;;;;88.00;45.60;;;;;;;;;;4323911;33;20334;-54
2021/03/08 03:00:13;;;;;;;80.37;44.87;;;;;;;;;;4324512;33;20207;-54
2021/03/08 03:02:40;;;;;;;79.33;44.27;;;;;;;;;;4347927;33;20278;-54
2021/03/08 03:05:11;;;;;;;98.90;49.03;;;;;;;;;;4324456;33;20359;-54
2021/03/08 03:07:40;;;;;;;84.93;45.20;;;;;;;;;;4321450;33;20222;-53
2021/03/08 03:10:07;;;;;;;92.70;48.97;;;;;;;;;;4323886;33;20333;-52
2021/03/08 03:12:34;;;;;;;99.17;52.63;;;;;;;;;;4324346;33;20366;-54
2021/03/08 03:15:01;;;;;;;99.47;53.60;;;;;;;;;;4325576;33;20239;-52
2021/03/08 03:17:29;;;;;;;107.40;56.37;;;;;;;;;;4320615;33;20208;-53
2021/03/08 03:19:57;;;;;;;102.33;55.57;;;;;;;;;;4322423;33;20265;-53
2021/03/08 03:22:24;;;;;;;108.47;54.50;;;;;;;;;;4335096;33;20698;-54
2021/03/08 03:24:54;;;;;;;112.00;54.40;;;;;;;;;;4324209;33;20764;-54
2021/03/08 03:27:22;;;;;;;109.23;56.27;;;;;;;;;;4325124;33;20215;-54
2021/03/08 03:29:49;;;;;;;103.53;54.50;;;;;;;;;;4323704;33;20856;-54
2021/03/08 03:32:16;;;;;;;99.63;51.73;;;;;;;;;;4329548;33;20263;-72
2021/03/08 03:34:44;;;;;;;101.83;48.37;;;;;;;;;;4322893;33;20224;-72
2021/03/08 03:37:12;;;;;;;91.80;45.80;;;;;;;;;;4322733;33;20230;-73
2021/03/08 03:39:37;;;;;;;70.87;40.00;;;;;;;;;;4320801;33;20270;-69
2021/03/08 03:42:03;;;;;;;65.90;38.23;;;;;;;;;;4325145;33;21054;-63
2021/03/08 03:44:29;;;;;;;59.90;35.40;;;;;;;;;;4319694;33;20216;-70
2021/03/08 03:46:56;;;;;;;70.57;38.67;;;;;;;;;;4347850;32;20282;-70
2021/03/08 03:49:22;;;;;;;79.47;40.83;;;;;;;;;;4321354;33;20203;-73
2021/03/08 03:51:47;;;;;;;69.17;41.40;;;;;;;;;;4312990;33;20665;-72
2021/03/08 03:54:13;;;;;;;77.80;41.03;;;;;;;;;;4320957;33;20428;-73
2021/03/08 03:56:51;;;;;;;83.87;43.37;;;;;;;;;;4321863;33;20251;-64
2021/03/08 03:59:54;;;;;;;72.10;37.67;;;;;;;;;;4346988;33;20275;-64
2021/03/08 04:02:43;;;;;;;64.63;36.80;;;;;;;;;;4314556;33;20210;-64
2021/03/08 04:05:11;;;;;;;65.33;34.60;;;;;;;;;;4322080;33;20298;-65
2021/03/08 04:07:39;;;;;;;64.10;33.60;;;;;;;;;;4326216;33;20220;-65
2021/03/08 04:10:08;;;;;;;64.37;32.37;;;;;;;;;;4348092;32;20507;-66
2021/03/08 04:12:34;;;;;;;64.13;33.40;;;;;;;;;;4323917;33;20340;-66
2021/03/08 04:15:10;;;;;;;67.43;34.67;;;;;;;;;;4322364;33;20223;-65
2021/03/08 04:17:39;;;;;;;60.53;33.33;;;;;;;;;;4326207;33;20254;-65
2021/03/08 04:20:07;;;;;;;59.07;33.10;;;;;;;;;;4325677;33;20262;-65
2021/03/08 04:22:34;;;;;;;69.90;34.57;;;;;;;;;;4325741;33;20627;-65
2021/03/08 04:25:01;;;;;;;75.30;36.50;;;;;;;;;;4322099;33;20250;-65
2021/03/08 04:27:28;;;;;;;63.00;35.70;;;;;;;;;;4325433;33;20609;-65
2021/03/08 04:29:55;;;;;;;68.63;38.23;;;;;;;;;;4324745;33;20327;-65
2021/03/08 04:32:23;;;;;;;62.33;37.03;;;;;;;;;;4324109;33;20301;-64
2021/03/08 04:34:50;;;;;;;61.93;35.67;;;;;;;;;;4320255;33;20349;-64
2021/03/08 04:37:17;;;;;;;77.03;42.07;;;;;;;;;;4324098;33;20316;-64
2021/03/08 04:39:44;;;;;;;79.37;45.93;;;;;;;;;;4322933;33;20391;-65
2021/03/08 04:42:13;;;;;;;74.30;41.47;;;;;;;;;;4323625;33;20269;-69
2021/03/08 04:44:40;;;;;;;70.90;40.83;;;;;;;;;;4344335;32;20247;-64
2021/03/08 04:47:08;;;;;;;68.70;39.07;;;;;;;;;;4324093;33;20200;-63
2021/03/08 04:49:34;;;;;;;71.70;36.63;;;;;;;;;;4323972;33;20713;-63
2021/03/08 04:52:00;;;;;;;64.53;37.17;;;;;;;;;;4323895;33;20219;-63
2021/03/08 04:54:27;;;;;;;68.77;35.77;;;;;;;;;;4320868;33;20271;-65
2021/03/08 04:56:54;;;;;;;63.30;33.67;;;;;;;;;;4326149;33;20400;-65
2021/03/08 04:59:20;;;;;;;92.00;46.70;;;;;;;;;;4322772;33;20681;-66
2021/03/08 05:01:48;;;;;;;96.90;51.37;;;;;;;;;;4321110;33;20313;-65
2021/03/08 05:04:14;;;;;;;83.80;48.10;;;;;;;;;;4319117;33;20282;-64
2021/03/08 05:06:41;;;;;;;85.33;49.87;;;;;;;;;;4326746;33;20222;-64
2021/03/08 05:09:13;;;;;;;85.07;49.57;;;;;;;;;;4322971;33;20684;-67
2021/03/08 05:11:39;;;;;;;113.47;55.90;;;;;;;;;;4329712;33;20239;-69
2021/03/08 05:14:11;;;;;;;102.07;52.50;;;;;;;;;;4319031;33;20654;-70
2021/03/08 05:16:43;;;;;;;108.80;56.57;;;;;;;;;;4326187;33;20236;-66
2021/03/08 05:19:09;;;;;;;110.53;61.67;;;;;;;;;;4322888;33;20341;-63
2021/03/08 05:21:35;;;;;;;122.17;64.60;;;;;;;;;;4326521;33;20308;-64
2021/03/08 05:24:04;;;;;;;122.17;63.07;;;;;;;;;;4322825;33;20589;-72
2021/03/08 05:26:30;;;;;;;115.40;60.90;;;;;;;;;;4348455;32;20267;-65
2021/03/08 05:28:57;;;;;;;125.20;64.60;;;;;;;;;;4322869;33;20227;-67
2021/03/08 05:31:27;;;;;;;127.33;71.37;;;;;;;;;;4327857;33;20511;-67
2021/03/08 05:33:55;;;;;;;129.77;72.17;;;;;;;;;;4319876;33;20253;-69
2021/03/08 05:36:22;;;;;;;150.83;83.33;;;;;;;;;;4324372;33;20249;-70
2021/03/08 05:38:48;;;;;;;173.47;97.00;;;;;;;;;;4322887;33;20208;-68
2021/03/08 05:41:39;;;;;;;198.43;109.53;;;;;;;;;;4326576;33;20302;-54
2021/03/08 05:44:07;;;;;;;150.50;87.90;;;;;;;;;;4319695;33;20216;-54
2021/03/08 05:47:03;;;;;;;154.33;88.90;;;;;;;;;;4347136;32;20391;-54
2021/03/08 05:49:47;;;;;;;131.63;72.00;;;;;;;;;;4344989;32;20231;-55
2021/03/08 05:52:36;;;;;;;108.83;65.60;;;;;;;;;;4343702;32;20314;-54
2021/03/08 05:55:36;;;;;;;124.63;65.20;;;;;;;;;;4315733;33;20606;-54
2021/03/08 05:58:28;;;;;;;116.30;67.80;;;;;;;;;;4319334;33;20245;-53
2021/03/08 06:01:13;;;;;;;108.50;63.23;;;;;;;;;;4324776;33;20311;-54
2021/03/08 06:03:56;;;;;;;101.63;53.03;;;;;;;;;;4322686;33;20269;-54
2021/03/08 06:07:01;;;;;;;102.30;54.63;;;;;;;;;;4323012;33;20257;-55
2021/03/08 06:09:28;;;;;;;90.27;44.30;;;;;;;;;;4324929;33;20330;-55
2021/03/08 06:12:09;;;;;;;83.17;50.57;;;;;;;;;;4326104;33;20222;-55
2021/03/08 06:14:40;;;;;;;86.50;48.87;;;;;;;;;;4323844;33;20237;-55
2021/03/08 06:17:07;;;;;;;80.57;37.93;;;;;;;;;;4334852;33;20230;-55
2021/03/08 06:19:36;;;;;;;103.20;51.70;;;;;;;;;;4323484;33;20363;-55
2021/03/08 06:22:02;;;;;;;103.43;55.20;;;;;;;;;;4327291;33;20215;-55
2021/03/08 06:24:28;;;;;;;132.73;70.60;;;;;;;;;;4324171;33;20308;-55
2021/03/08 06:26:55;;;;;;;62.60;38.33;;;;;;;;;;4324522;33;20323;-55
2021/03/08 06:29:22;;;;;;;76.67;45.10;;;;;;;;;;4322049;33;20245;-54
2021/03/08 06:31:50;;;;;;;89.43;51.87;;;;;;;;;;4353229;32;20247;-54
2021/03/08 06:34:16;;;;;;;97.53;57.50;;;;;;;;;;4324396;33;20604;-54
2021/03/08 06:36:44;;;;;;;97.30;55.27;;;;;;;;;;4323848;33;20310;-53
2021/03/08 06:39:10;;;;;;;76.90;50.40;;;;;;;;;;4326398;33;20733;-55
2021/03/08 06:41:36;;;;;;;82.20;46.00;;;;;;;;;;4326917;33;20231;-53
2021/03/08 06:44:03;;;;;;;78.50;43.97;;;;;;;;;;4329615;33;20222;-53
2021/03/08 06:46:28;;;;;;;76.17;48.43;;;;;;;;;;4349041;32;20251;-54
2021/03/08 06:48:54;;;;;;;82.73;49.53;;;;;;;;;;4323590;33;20432;-53
2021/03/08 06:51:19;;;;;;;95.43;51.50;;;;;;;;;;4326260;33;20340;-55
2021/03/08 06:53:46;;;;;;;101.00;54.67;;;;;;;;;;4326663;33;20273;-55
2021/03/08 06:56:20;;;;;;;82.10;49.90;;;;;;;;;;4326411;33;20227;-54
2021/03/08 06:59:02;;;;;;;84.57;52.37;;;;;;;;;;4327103;33;20243;-54
2021/03/08 07:01:35;;;;;;;87.57;51.60;;;;;;;;;;4319865;33;20657;-53
2021/03/08 07:04:02;;;;;;;84.57;49.77;;;;;;;;;;4327209;33;20234;-53
2021/03/08 07:06:28;;;;;;;98.83;56.80;;;;;;;;;;4326388;33;20424;-54
2021/03/08 07:09:07;;;;;;;111.73;60.27;;;;;;;;;;4338909;33;20343;-52
2021/03/08 07:11:33;;;;;;;97.23;59.83;;;;;;;;;;4324832;33;20484;-54
2021/03/08 07:14:00;;;;;;;155.27;66.43;;;;;;;;;;4325681;33;20230;-53
2021/03/08 07:16:38;;;;;;;104.10;54.30;;;;;;;;;;4325332;33;20235;-55
2021/03/08 07:19:06;;;;;;;78.17;45.80;;;;;;;;;;4326604;33;20219;-54
2021/03/08 07:21:32;;;;;;;66.97;37.53;;;;;;;;;;4324290;33;20719;-55
2021/03/08 07:24:12;;;;;;;59.03;36.33;;;;;;;;;;4324486;33;20293;-54
2021/03/08 07:26:55;;;;;;;50.57;29.27;;;;;;;;;;4325838;33;20622;-53
2021/03/08 07:29:22;;;;;;;62.77;35.00;;;;;;;;;;4313512;33;20241;-54
2021/03/08 07:31:50;;;;;;;39.93;25.73;;;;;;;;;;4326384;33;20239;-55
2021/03/08 07:34:16;;;;;;;35.87;23.63;;;;;;;;;;4326837;33;20345;-54
2021/03/08 07:36:56;;;;;;;48.47;26.27;;;;;;;;;;4326207;33;20333;-53
2021/03/08 07:39:21;;;;;;;36.37;24.70;;;;;;;;;;4318669;33;20349;-54
2021/03/08 07:41:58;;;;;;;48.37;26.57;;;;;;;;;;4329015;33;20243;-55
2021/03/08 07:44:26;;;;;;;44.97;27.17;;;;;;;;;;4328032;33;20302;-54
2021/03/08 07:46:54;;;;;;;39.77;25.90;;;;;;;;;;4328643;33;20211;-55
2021/03/08 07:49:36;;;;;;;42.77;21.73;;;;;;;;;;4329053;33;20273;-55
2021/03/08 07:52:13;;;;;;;45.10;19.90;;;;;;;;;;4325817;33;20815;-53
2021/03/08 07:54:53;;;;;;;40.27;23.17;;;;;;;;;;4321523;33;20318;-54
2021/03/08 07:57:19;;;;;;;33.10;23.13;;;;;;;;;;4322833;33;20344;-55
2021/03/08 07:59:45;;;;;;;35.63;20.83;;;;;;;;;;4325548;33;20819;-54
2021/03/08 08:02:11;;;;;;;34.70;22.00;;;;;;;;;;4326672;33;20326;-55
2021/03/08 08:04:37;;;;;;;33.00;20.93;;;;;;;;;;4331267;33;20305;-54
2021/03/08 08:07:07;;;;;;;46.33;29.07;;;;;;;;;;4334276;33;20882;-54
2021/03/08 08:09:43;;;;;;;43.43;23.93;;;;;;;;;;4324774;32;20283;-54
2021/03/08 08:12:21;;;;;;;35.63;22.83;;;;;;;;;;4328951;33;20281;-53
2021/03/08 08:14:50;;;;;;;40.67;23.87;;;;;;;;;;4326873;33;20207;-54
2021/03/08 08:17:19;;;;;;;50.33;29.77;;;;;;;;;;4327061;33;20220;-53
2021/03/08 08:19:46;;;;;;;59.23;33.80;;;;;;;;;;4324976;33;20697;-55
2021/03/08 08:22:23;;;;;;;49.17;30.17;;;;;;;;;;4316607;33;20503;-59
2021/03/08 08:24:52;;;;;;;43.83;27.53;;;;;;;;;;4327580;33;20424;-59
2021/03/08 08:27:19;;;;;;;52.57;30.37;;;;;;;;;;4322894;33;20275;-57
2021/03/08 08:29:46;;;;;;;61.03;32.70;;;;;;;;;;4325205;33;20526;-57
2021/03/08 08:32:13;;;;;;;48.83;30.30;;;;;;;;;;4319326;33;20634;-57
2021/03/08 08:34:44;;;;;;;59.90;32.87;;;;;;;;;;4328883;32;20219;-57
2021/03/08 08:37:17;;;;;;;49.97;30.40;;;;;;;;;;4327454;33;20707;-58
2021/03/08 08:40:03;;;;;;;53.27;29.43;;;;;;;;;;4326767;33;20286;-57
2021/03/08 08:42:29;;;;;;;49.30;30.97;;;;;;;;;;4317188;33;20330;-57
2021/03/08 08:44:57;;;;;;;49.67;29.43;;;;;;;;;;4327097;33;20340;-58
2021/03/08 08:47:31;;;;;;;48.63;28.50;;;;;;;;;;4327795;33;20274;-58
2021/03/08 08:49:59;;;;;;;48.77;27.67;;;;;;;;;;4326866;33;20227;-58
2021/03/08 08:52:50;;;;;;;47.60;27.43;;;;;;;;;;4329197;33;20562;-58
2021/03/08 08:55:19;;;;;;;38.60;23.97;;;;;;;;;;4328146;33;20215;-57
2021/03/08 08:58:22;;;;;;;43.37;25.23;;;;;;;;;;4326589;33;20241;-57
2021/03/08 09:01:07;;;;;;;40.03;26.07;;;;;;;;;;4330049;33;20293;-59
2021/03/08 09:03:58;;;;;;;40.10;26.13;;;;;;;;;;4333585;33;20242;-59
2021/03/08 09:06:49;;;;;;;65.07;32.53;;;;;;;;;;4327788;33;20242;-55
2021/03/08 09:09:47;;;;;;;41.57;22.10;;;;;;;;;;4334783;33;20318;-55
2021/03/08 09:13:07;;;;;;;39.17;22.47;;;;;;;;;;4349325;32;20254;-54
2021/03/08 09:15:33;;;;;;;43.10;25.73;;;;;;;;;;4271609;33;20257;-53
2021/03/08 09:18:03;;;;;;;45.53;24.83;;;;;;;;;;4267458;33;20224;-52
2021/03/08 09:20:30;;;;;;;36.60;25.50;;;;;;;;;;4294597;33;20408;-53
2021/03/08 09:23:01;;;;;;;46.23;24.70;;;;;;;;;;4332264;33;20237;-53
2021/03/08 09:25:37;;;;;;;35.03;20.83;;;;;;;;;;4330345;33;20293;-54
2021/03/08 09:28:10;;;;;;;36.60;25.30;;;;;;;;;;4326856;33;20289;-53
2021/03/08 09:30:41;;;;;;;46.77;27.30;;;;;;;;;;4327762;33;20227;-53
2021/03/08 09:33:18;;;;;;;45.83;26.90;;;;;;;;;;4343775;32;20224;-55
2021/03/08 09:35:46;;;;;;;53.33;27.77;;;;;;;;;;4328227;33;20316;-53
2021/03/08 09:38:15;;;;;;;46.90;29.07;;;;;;;;;;4327790;33;20238;-54
2021/03/08 09:40:47;;;;;;;47.10;29.23;;;;;;;;;;4327703;33;20496;-54
2021/03/08 09:43:24;;;;;;;41.30;24.93;;;;;;;;;;4327405;33;20373;-54
2021/03/08 09:46:04;;;;;;;54.97;24.67;;;;;;;;;;4327596;33;20316;-55
2021/03/08 09:48:31;;;;;;;32.10;21.13;;;;;;;;;;4322804;33;20222;-55
2021/03/08 09:51:13;;;;;;;32.33;23.37;;;;;;;;;;4350892;32;20364;-54
2021/03/08 09:53:42;;;;;;;38.40;23.97;;;;;;;;;;4347101;32;20579;-53
2021/03/08 09:56:19;;;;;;;32.57;21.67;;;;;;;;;;4327041;33;20246;-53
2021/03/08 09:58:45;;;;;;;35.33;21.13;;;;;;;;;;4326883;33;20262;-56
2021/03/08 10:01:19;;;;;;;32.47;21.93;;;;;;;;;;4326194;33;20412;-55
2021/03/08 10:03:45;;;;;;;35.27;22.03;;;;;;;;;;4326898;33;20227;-54
2021/03/08 10:06:21;;;;;;;27.97;17.03;;;;;;;;;;4327112;33;20642;-53
2021/03/08 10:08:47;;;;;;;35.83;19.07;;;;;;;;;;4333950;33;20233;-53
2021/03/08 10:11:37;;;;;;;30.30;19.37;;;;;;;;;;4328345;32;20580;-54
2021/03/08 10:14:03;;;;;;;29.47;19.57;;;;;;;;;;4329227;33;20814;-53
2021/03/08 10:16:29;;;;;;;38.73;19.20;;;;;;;;;;4343363;32;20610;-54
2021/03/08 10:18:56;;;;;;;36.20;19.57;;;;;;;;;;4327258;33;20234;-55
2021/03/08 10:21:22;;;;;;;32.67;21.40;;;;;;;;;;4326639;33;20216;-54
2021/03/08 10:23:48;;;;;;;29.80;19.87;;;;;;;;;;4326177;33;20239;-54
2021/03/08 10:26:18;;;;;;;40.40;17.60;;;;;;;;;;4326376;33;20580;-54
2021/03/08 10:28:47;;;;;;;35.27;20.30;;;;;;;;;;4326935;33;20288;-55
2021/03/08 10:31:26;;;;;;;44.87;19.07;;;;;;;;;;4326229;33;20338;-53
2021/03/08 10:34:01;;;;;;;51.10;28.43;;;;;;;;;;4327367;33;20225;-54
2021/03/08 10:36:34;;;;;;;55.00;30.90;;;;;;;;;;4326916;33;20250;-54
2021/03/08 10:39:04;;;;;;;43.80;26.30;;;;;;;;;;4328403;33;20337;-54
2021/03/08 10:41:30;;;;;;;39.10;24.13;;;;;;;;;;4326386;33;20305;-54
2021/03/08 10:43:58;;;;;;;38.30;23.10;;;;;;;;;;4327120;33;20246;-54
2021/03/08 10:46:34;;;;;;;40.60;26.93;;;;;;;;;;4326753;33;20351;-53
2021/03/08 10:49:06;;;;;;;36.80;20.93;;;;;;;;;;4326834;33;20234;-53
2021/03/08 10:51:33;;;;;;;37.47;21.67;;;;;;;;;;4326430;33;20231;-54
2021/03/08 10:54:04;;;;;;;29.97;19.50;;;;;;;;;;4326924;33;20207;-54
2021/03/08 10:56:32;;;;;;;37.07;19.17;;;;;;;;;;4325316;33;20610;-54
2021/03/08 10:58:59;;;;;;;34.13;19.47;;;;;;;;;;4326597;33;20253;-54
2021/03/08 11:01:26;;;;;;;122.60;63.40;;;;;;;;;;4326483;33;20633;-53
2021/03/08 11:03:52;;;;;;;89.93;44.60;;;;;;;;;;4326738;33;20199;-53
2021/03/08 11:06:19;;;;;;;47.90;24.67;;;;;;;;;;4326372;33;20227;-54
2021/03/08 11:08:57;;;;;;;40.10;23.67;;;;;;;;;;4325327;33;20242;-55
2021/03/08 11:11:28;;;;;;;31.43;16.23;;;;;;;;;;4322612;33;21035;-53
2021/03/08 11:14:02;;;;;;;39.17;22.63;;;;;;;;;;4327719;33;20310;-53
2021/03/08 11:16:28;;;;;;;55.30;31.27;;;;;;;;;;4326627;33;20731;-53
2021/03/08 11:18:54;;;;;;;44.63;23.40;;;;;;;;;;4325594;33;20334;-53
2021/03/08 11:21:31;;;;;;;51.90;30.73;;;;;;;;;;4322352;33;20243;-53
2021/03/08 11:24:22;;;;;;;56.50;32.67;;;;;;;;;;4329458;33;20590;-52
2021/03/08 11:27:34;;;;;;;47.53;27.07;;;;;;;;;;4327514;33;20258;-54
2021/03/08 11:30:03;;;;;;;42.20;25.10;;;;;;;;;;4324796;33;20234;-53
2021/03/08 11:32:30;;;;;;;48.40;21.53;;;;;;;;;;4327509;33;20277;-53
2021/03/08 11:34:57;;;;;;;307.80;185.93;;;;;;;;;;4323246;33;20253;-54
2021/03/08 11:37:24;;;;;;;125.50;77.17;;;;;;;;;;4326535;33;20748;-54
2021/03/08 11:39:57;;;;;;;42.23;21.40;;;;;;;;;;4325287;33;20286;-55
2021/03/08 11:42:25;;;;;;;28.30;18.70;;;;;;;;;;4320885;33;20219;-54
2021/03/08 11:44:51;;;;;;;52.77;20.80;;;;;;;;;;4344348;32;20258;-55
2021/03/08 11:47:17;;;;;;;27.63;14.17;;;;;;;;;;4323458;33;20405;-55
2021/03/08 11:49:42;;;;;;;27.30;16.60;;;;;;;;;;4324460;33;20883;-54
2021/03/08 11:52:09;;;;;;;20.57;12.13;;;;;;;;;;4324209;33;20796;-56
2021/03/08 11:54:35;;;;;;;26.20;20.93;;;;;;;;;;4319935;33;20207;-54
2021/03/08 11:57:01;;;;;;;27.57;14.57;;;;;;;;;;4326056;33;20298;-56
2021/03/08 11:59:28;;;;;;;72.30;47.83;;;;;;;;;;4322027;33;20215;-54
2021/03/08 12:01:54;;;;;;;37.63;24.37;;;;;;;;;;4326112;33;20310;-56
2021/03/08 12:04:20;;;;;;;21.77;13.50;;;;;;;;;;4326003;33;20288;-55
2021/03/08 12:06:47;;;;;;;16.03;9.13;;;;;;;;;;4328864;33;20301;-54
2021/03/08 12:09:12;;;;;;;20.23;9.97;;;;;;;;;;4325845;33;20681;-55
2021/03/08 12:11:38;;;;;;;21.87;11.00;;;;;;;;;;4328918;33;20285;-53
2021/03/08 12:14:03;;;;;;;30.73;16.63;;;;;;;;;;4324074;33;20338;-55
2021/03/08 12:16:29;;;;;;;19.47;10.97;;;;;;;;;;4327914;33;20282;-55
2021/03/08 12:18:54;;;;;;;29.17;17.43;;;;;;;;;;4324318;33;20211;-59
2021/03/08 12:21:21;;;;;;;19.97;10.33;;;;;;;;;;4328517;33;20612;-59
2021/03/08 12:23:47;;;;;;;23.23;12.57;;;;;;;;;;4323656;33;20362;-60
2021/03/08 12:26:14;;;;;;;21.17;10.43;;;;;;;;;;4328502;33;20262;-58
2021/03/08 12:28:40;;;;;;;18.40;11.07;;;;;;;;;;4328923;33;20321;-58
2021/03/08 12:31:05;;;;;;;19.70;10.47;;;;;;;;;;4327853;33;20287;-60
2021/03/08 12:33:34;;;;;;;20.20;10.93;;;;;;;;;;4326203;33;20383;-59
2021/03/08 12:36:00;;;;;;;17.97;12.07;;;;;;;;;;4327228;33;20376;-59
2021/03/08 12:38:26;;;;;;;19.93;12.13;;;;;;;;;;4327060;33;20726;-60
2021/03/08 12:40:52;;;;;;;37.47;9.57;;;;;;;;;;4326425;33;20255;-60
2021/03/08 12:43:18;;;;;;;25.43;13.60;;;;;;;;;;4334681;33;20661;-60
2021/03/08 12:45:43;;;;;;;25.57;13.07;;;;;;;;;;4333560;32;20762;-62
2021/03/08 12:48:09;;;;;;;19.87;10.70;;;;;;;;;;4334918;33;20272;-63
2021/03/08 12:50:34;;;;;;;33.53;14.93;;;;;;;;;;4332055;33;20235;-62
2021/03/08 12:53:00;;;;;;;43.70;18.63;;;;;;;;;;4335328;32;20237;-61
2021/03/08 12:55:25;;;;;;;23.70;10.90;;;;;;;;;;4326698;33;20703;-63
2021/03/08 12:57:51;;;;;;;28.47;7.87;;;;;;;;;;4330643;33;20322;-61
2021/03/08 13:00:17;;;;;;;24.60;8.43;;;;;;;;;;4321749;33;20303;-61
2021/03/08 13:02:43;;;;;;;16.07;5.97;;;;;;;;;;4328037;33;20400;-61
2021/03/08 13:05:11;;;;;;;16.37;7.27;;;;;;;;;;4322433;33;20275;-61
2021/03/08 13:07:37;;;;;;;25.20;9.57;;;;;;;;;;4327030;33;20369;-60
2021/03/08 13:10:04;;;;;;;18.67;8.93;;;;;;;;;;4326284;33;20595;-61
2021/03/08 13:12:29;;;;;;;14.60;8.20;;;;;;;;;;4322190;33;20238;-62
2021/03/08 13:14:55;;;;;;;10.33;7.23;;;;;;;;;;4324597;33;20350;-61
2021/03/08 13:17:20;;;;;;;16.50;7.17;;;;;;;;;;4326614;33;20309;-60
2021/03/08 13:19:46;;;;;;;19.77;8.60;;;;;;;;;;4322957;33;20364;-60
2021/03/08 13:22:11;;;;;;;12.87;5.87;;;;;;;;;;4323840;33;20504;-60
2021/03/08 13:24:37;;;;;;;9.17;5.80;;;;;;;;;;4319151;33;20338;-59
2021/03/08 13:27:06;;;;;;;14.13;6.27;;;;;;;;;;4323174;33;20317;-59
2021/03/08 13:29:36;;;;;;;14.57;5.37;;;;;;;;;;4324656;33;20245;-53
2021/03/08 13:32:06;;;;;;;14.33;5.70;;;;;;;;;;4324740;33;20752;-55
2021/03/08 13:34:33;;;;;;;12.17;6.47;;;;;;;;;;4321985;33;20223;-54
2021/03/08 13:37:00;;;;;;;16.63;8.97;;;;;;;;;;4327178;33;20245;-53
2021/03/08 13:39:26;;;;;;;17.27;6.30;;;;;;;;;;4322117;33;20630;-53
2021/03/08 13:41:52;;;;;;;19.93;6.60;;;;;;;;;;4323707;33;20332;-54
2021/03/08 13:44:17;;;;;;;15.60;7.23;;;;;;;;;;4318530;33;20291;-55
2021/03/08 13:46:43;;;;;;;10.13;6.27;;;;;;;;;;4323297;33;20332;-55
2021/03/08 13:49:08;;;;;;;17.80;7.07;;;;;;;;;;4325985;33;20231;-55
2021/03/08 13:51:34;;;;;;;16.30;6.80;;;;;;;;;;4323510;33;20665;-55
2021/03/08 13:53:59;;;;;;;17.90;7.13;;;;;;;;;;4342926;32;20301;-54
2021/03/08 13:56:25;;;;;;;19.47;10.03;;;;;;;;;;4324951;33;20226;-54
2021/03/08 13:58:51;;;;;;;14.67;8.27;;;;;;;;;;4327340;33;20290;-54
2021/03/08 14:01:16;;;;;;;14.90;8.53;;;;;;;;;;4333424;32;20258;-53
2021/03/08 14:03:44;;;;;;;17.17;9.10;;;;;;;;;;4347381;32;20227;-55
2021/03/08 14:06:11;;;;;;;15.20;8.30;;;;;;;;;;4346982;32;20333;-57
2021/03/08 14:08:37;;;;;;;19.67;8.67;;;;;;;;;;4322727;33;20279;-54
2021/03/08 14:11:03;;;;;;;18.97;8.30;;;;;;;;;;4348517;32;20256;-54
2021/03/08 14:13:28;;;;;;;18.50;7.43;;;;;;;;;;4322043;33;20626;-55
2021/03/08 14:15:54;;;;;;;13.97;6.30;;;;;;;;;;4321333;33;20325;-57
2021/03/08 14:18:20;;;;;;;13.00;6.13;;;;;;;;;;4321743;33;20370;-55
2021/03/08 14:20:45;;;;;;;12.07;6.73;;;;;;;;;;4319889;33;20298;-55
2021/03/08 14:23:11;;;;;;;16.47;6.13;;;;;;;;;;4320309;33;20238;-54
2021/03/08 14:25:36;;;;;;;15.87;6.00;;;;;;;;;;4322934;33;20342;-55
2021/03/08 14:28:02;;;;;;;13.43;5.47;;;;;;;;;;4323025;33;20353;-55
2021/03/08 14:30:28;;;;;;;17.07;7.13;;;;;;;;;;4319789;33;20297;-54
2021/03/08 14:32:53;;;;;;;20.47;7.17;;;;;;;;;;4331203;33;20471;-55